KSHVKTUP

Guest
Details From KSHV - Shreveport Rgnl
To KTUP - Tupelo Rgnl
Flight Number -
Tags Generated
Created
Modified
Stats Distance 277 nm / 513 km
Max Altitude 0 ft / 0 m
Waypoints 3
Social Downloads 0
Likes 0
Share VATSIM

Download

Looking for another format? Having issues loading an existing format? Contact us
Advertisement - Login to hide

Notes

Generated

Route

KSHV R3106 KTUP

ID Type Via Altitude Latitude Longitude Leg Dist Tot Dist Heading (true) Name
O KSHV APT - 0 ft / 0 m 32.44506˚ -93.83292˚ - 0 nm - SHREVEPORT RGNL
R3106 FIX - 0 ft / 0 m 34.27704˚ -88.76992˚ 276 nm 276 nm 65° / 68° -
O KTUP APT - 0 ft / 0 m 34.27704˚ -88.76992˚ 0 nm 276 nm 0° / 180° -

Altitude Profile

Advertisement - Login to hide

Weather


0- 5 10 15 20 25 30 35+ Temperature / ° C

Clouds and Precipitation
Forecast for 2018-05-26 06:00 UTC. Updated 5 hours ago

Ground ~20,000 ft ~40,000 ft Winds

KSHV

Details ICAO KSHV (SHV)
Name SHREVEPORT RGNL
Region United States
Timezone America/Chicago (UTC-5.0)
Stats Elevation 257 ft / 78 m (AMSL)
Location 32.446960° -93.825410°
Runways 2
Magnetic Variation 1.386° E

METAR

KSHV 260956Z 00000KT 10SM FEW049 SCT100 SCT190 22/22 A2984 RMK AO2 SLP103 T02220217

Decode

TAF

KSHV 260529Z 2606/2706 VRB03KT P6SM SCT060 BKN150 FM260800 21003KT P6SM BKN250 FM261000 21003KT P6SM OVC015 TEMPO 2612/2614 5SM BR SCT020 BKN080 FM261500 VRB06KT P6SM SCT045 BKN120 FM261700 26006KT P6SM BKN050 FM262100 30006KT P6SM OVC250

Decode

Departure Runways

ID Width Length Bearing (true) Bearing (mag) Surface Threshold Offset Overrun Length
05 150 ft / 46 m 6,197 ft / 1,889 m 60.78° 59.39° Asphalt 0 ft / 0 m 102 ft / 31 m
14 200 ft / 61 m 8,361 ft / 2,548 m 142.84° 141.45° Asphalt 0 ft / 0 m 102 ft / 31 m
23 150 ft / 46 m 6,197 ft / 1,889 m 240.79° 239.40° Asphalt 0 ft / 0 m 102 ft / 31 m
32 200 ft / 61 m 8,361 ft / 2,548 m 322.85° 321.46° Asphalt 374 ft / 114 m 102 ft / 31 m

KTUP

Details ICAO KTUP (TUP)
Name TUPELO RGNL
Region United States
Timezone America/Chicago (UTC-5.0)
Stats Elevation 346 ft / 105 m (AMSL)
Location 34.268111° -88.769894°
Runways 1
Magnetic Variation 2.177° W

METAR

KTUP 260953Z AUTO 00000KT 10SM OVC005 A2989 RMK AO2 SLPNO $

Decode

TAF

TAF KTUP 260520Z 2606/2706 VRB02KT P6SM SCT025 BKN250 TEMPO 2609/2613 2SM BR FM261600 VRB03KT P6SM VCTS SCT040CB SCT250 TEMPO 2619/2623 3SM TSRA BKN040CB FM270300 VRB03KT P6SM SCT060 BKN250

Decode

Destination Runways

ID Width Length Bearing (true) Bearing (mag) Surface Threshold Offset Overrun Length
18 100 ft / 30 m 6,516 ft / 1,986 m 179.87° 182.05° Asphalt 0 ft / 0 m 0 ft / 0 m
36 100 ft / 30 m 6,516 ft / 1,986 m 359.87° 2.05° Asphalt 0 ft / 0 m 0 ft / 0 m

Approach Navaids

Runway Type Ident Frequency Range Bearing (true) Bearing (mag) Slope Elevation
36 Localiser ITUP 108.50 MHz 18 nm / 33 km 359.86° 2.04° - 346 ft / 105 m (AMSL)
36 Glidescope ITUP 108.50 MHz 10 nm / 19 km 359.87° 2.04° 3.00° 345 ft / 105 m (AMSL)

Popular Alternatives